createdAt,value
2018-01-07T00:00:44.526Z,87.12
2018-01-07T00:03:12.848Z,86.66
2018-01-07T00:05:41.186Z,86.75
2018-01-07T00:08:09.513Z,86.70
2018-01-07T00:10:37.864Z,86.77
2018-01-07T00:13:06.186Z,86.48
2018-01-07T00:15:34.530Z,86.79
2018-01-07T00:18:02.847Z,86.74
2018-01-07T00:20:31.186Z,86.79
2018-01-07T00:22:59.510Z,86.72
2018-01-07T00:25:27.856Z,86.70
2018-01-07T00:27:56.165Z,86.95
2018-01-07T00:30:24.510Z,87.08
2018-01-07T00:32:52.829Z,86.76
2018-01-07T00:35:21.167Z,86.97
2018-01-07T00:37:49.783Z,86.88
2018-01-07T00:40:18.129Z,87.24
2018-01-07T00:42:46.447Z,87.27
2018-01-07T00:45:14.777Z,87.17
2018-01-07T00:47:43.094Z,87.27
2018-01-07T00:50:11.434Z,87.24
2018-01-07T00:52:39.751Z,87.16
2018-01-07T00:55:08.088Z,86.90
2018-01-07T00:57:36.410Z,87.11
2018-01-07T01:00:04.750Z,87.36
2018-01-07T01:02:33.062Z,87.10
2018-01-07T01:05:01.402Z,87.18
2018-01-07T01:07:29.713Z,87.02
2018-01-07T01:09:58.055Z,87.19
2018-01-07T01:12:26.370Z,87.25
2018-01-07T01:14:54.714Z,86.79
2018-01-07T01:17:23.026Z,86.96
2018-01-07T01:19:51.371Z,86.77
2018-01-07T01:22:19.690Z,86.71
2018-01-07T01:24:48.022Z,86.45
2018-01-07T01:27:16.330Z,86.00
2018-01-07T01:29:44.674Z,86.17
2018-01-07T01:32:12.986Z,85.91
2018-01-07T01:34:41.304Z,86.10
2018-01-07T01:37:09.642Z,86.14
2018-01-07T01:39:37.965Z,86.03
2018-01-07T01:42:06.298Z,85.73
2018-01-07T01:44:34.614Z,85.30
2018-01-07T01:47:02.946Z,85.67
2018-01-07T01:52:05.878Z,84.98
2018-01-07T01:54:34.178Z,84.47
2018-01-07T01:57:02.510Z,84.33
2018-01-07T01:59:30.830Z,83.84
2018-01-07T02:01:59.158Z,83.91
2018-01-07T02:04:27.478Z,83.63
2018-01-07T02:06:55.814Z,83.64
2018-01-07T02:09:24.269Z,83.60
2018-01-07T02:11:52.610Z,83.15
2018-01-07T02:14:21.446Z,83.20
2018-01-07T02:16:49.775Z,83.64
2018-01-07T02:19:18.088Z,83.35
2018-01-07T02:21:46.429Z,83.22
2018-01-07T02:24:15.246Z,82.58
2018-01-07T02:26:43.578Z,82.49
2018-01-07T02:29:11.886Z,81.51
2018-01-07T02:31:40.232Z,81.53
2018-01-07T02:34:08.545Z,81.19
2018-01-07T02:36:36.878Z,81.35
2018-01-07T02:39:05.194Z,82.23
2018-01-07T02:41:33.530Z,82.37
2018-01-07T02:44:01.837Z,82.40
2018-01-07T02:46:30.174Z,82.45
2018-01-07T02:48:58.489Z,82.28
2018-01-07T02:51:26.822Z,81.88
2018-01-07T02:53:55.142Z,81.53
2018-01-07T02:56:23.488Z,81.76
2018-01-07T02:58:51.794Z,82.25
2018-01-07T03:01:20.129Z,81.09
2018-01-07T03:03:48.442Z,80.79
2018-01-07T03:06:16.778Z,80.03
2018-01-07T03:08:45.091Z,80.30
2018-01-07T03:11:13.439Z,80.66
2018-01-07T03:13:41.754Z,80.95
2018-01-07T03:16:10.089Z,80.47
2018-01-07T03:18:38.412Z,81.18
2018-01-07T03:21:06.742Z,80.73
2018-01-07T03:23:35.054Z,80.57
2018-01-07T03:26:03.394Z,80.77
2018-01-07T03:28:31.710Z,80.62
2018-01-07T03:31:00.048Z,80.69
2018-01-07T03:33:28.362Z,81.07
2018-01-07T03:35:56.701Z,80.86
2018-01-07T03:38:25.023Z,80.95
2018-01-07T03:40:53.342Z,81.05
2018-01-07T03:43:21.682Z,80.51
2018-01-07T03:45:49.996Z,81.17
2018-01-07T03:48:18.649Z,81.32
2018-01-07T03:50:46.961Z,81.67
2018-01-07T03:53:15.295Z,81.59
2018-01-07T03:55:43.611Z,81.17
2018-01-07T03:58:11.941Z,81.23
2018-01-07T04:00:40.249Z,81.60
2018-01-07T04:03:08.587Z,82.09
2018-01-07T04:05:36.904Z,81.89
2018-01-07T04:08:05.242Z,82.30
2018-01-07T04:10:33.542Z,82.19
2018-01-07T04:13:01.870Z,82.23
2018-01-07T04:15:30.186Z,82.00
2018-01-07T04:17:58.514Z,81.65
2018-01-07T04:20:26.830Z,81.70
2018-01-07T04:22:55.815Z,81.26
2018-01-07T04:25:24.126Z,80.74
2018-01-07T04:27:52.462Z,80.72
2018-01-07T04:30:20.770Z,80.53
2018-01-07T04:32:49.097Z,80.61
2018-01-07T04:35:17.417Z,80.18
2018-01-07T04:37:45.754Z,80.73
2018-01-07T04:40:14.074Z,80.43
2018-01-07T04:42:42.412Z,80.92
2018-01-07T04:45:10.722Z,81.20
2018-01-07T04:47:39.054Z,80.97
2018-01-07T04:50:07.366Z,81.12
2018-01-07T04:52:35.703Z,80.79
2018-01-07T04:55:04.022Z,81.12
2018-01-07T04:57:32.367Z,81.26
2018-01-07T05:00:00.686Z,81.23
2018-01-07T05:02:29.032Z,81.19
2018-01-07T05:04:57.351Z,81.57
2018-01-07T05:07:25.690Z,81.23
2018-01-07T05:09:53.998Z,81.52
2018-01-07T05:12:22.334Z,81.28
2018-01-07T05:14:50.649Z,81.30
2018-01-07T05:17:18.983Z,81.21
2018-01-07T05:19:47.301Z,81.43
2018-01-07T05:22:15.643Z,81.56
2018-01-07T05:24:43.950Z,81.86
2018-01-07T05:27:12.286Z,81.86
2018-01-07T05:29:41.743Z,81.86
2018-01-07T05:32:10.074Z,82.16
2018-01-07T05:34:38.389Z,82.25
2018-01-07T05:37:06.731Z,82.10
2018-01-07T05:39:35.043Z,82.59
2018-01-07T05:42:03.401Z,82.38
2018-01-07T05:44:31.718Z,82.34
2018-01-07T05:47:00.041Z,82.19
2018-01-07T05:49:28.362Z,82.59
2018-01-07T05:51:56.675Z,82.74
2018-01-07T05:54:25.010Z,82.82
2018-01-07T05:56:53.331Z,82.82
2018-01-07T05:59:21.678Z,82.93
2018-01-07T06:01:49.991Z,82.70
2018-01-07T06:04:18.325Z,83.08
2018-01-07T06:06:46.648Z,83.21
2018-01-07T06:09:14.990Z,83.12
2018-01-07T06:11:43.310Z,83.14
2018-01-07T06:14:11.650Z,83.28
2018-01-07T06:16:39.966Z,83.26
2018-01-07T06:19:08.306Z,83.44
2018-01-07T06:21:36.617Z,83.32
2018-01-07T06:24:04.955Z,83.57
2018-01-07T06:26:33.278Z,83.35
2018-01-07T06:29:01.624Z,83.53
2018-01-07T06:31:29.934Z,83.46
2018-01-07T06:33:58.270Z,83.54
2018-01-07T06:36:26.594Z,83.36
2018-01-07T06:38:54.944Z,83.35
2018-01-07T06:41:23.256Z,83.60
2018-01-07T06:43:51.590Z,83.13
2018-01-07T06:46:19.906Z,83.76
2018-01-07T06:48:48.242Z,83.40
2018-01-07T06:51:16.558Z,83.40
2018-01-07T06:53:44.894Z,83.19
2018-01-07T06:56:13.214Z,83.61
2018-01-07T06:58:41.555Z,83.56
2018-01-07T07:01:09.874Z,83.50
2018-01-07T07:03:38.205Z,83.76
2018-01-07T07:06:06.525Z,83.59
2018-01-07T07:08:34.870Z,83.97
2018-01-07T07:11:03.182Z,83.87
2018-01-07T07:13:31.518Z,84.21
2018-01-07T07:15:59.833Z,83.76
2018-01-07T07:18:28.175Z,83.17
2018-01-07T07:20:56.489Z,82.88
2018-01-07T07:23:24.830Z,83.04
2018-01-07T07:25:53.142Z,82.92
2018-01-07T07:28:21.483Z,83.00
2018-01-07T07:30:49.802Z,83.61
2018-01-07T07:33:18.138Z,83.61
2018-01-07T07:35:46.482Z,83.22
2018-01-07T07:38:14.822Z,83.36
2018-01-07T07:40:43.337Z,83.81
2018-01-07T07:43:11.726Z,83.74
2018-01-07T07:45:41.013Z,83.83
2018-01-07T07:48:09.372Z,83.39
2018-01-07T07:50:38.273Z,83.17
2018-01-07T07:53:06.572Z,83.53
2018-01-07T07:55:34.990Z,83.32
2018-01-07T07:58:03.815Z,83.44
2018-01-07T08:00:32.243Z,83.57
2018-01-07T08:03:00.774Z,83.02
2018-01-07T08:05:29.569Z,83.22
2018-01-07T08:07:57.895Z,83.22
2018-01-07T08:10:26.244Z,83.52
2018-01-07T08:12:54.562Z,83.78
2018-01-07T08:15:23.241Z,83.77
2018-01-07T08:17:51.562Z,83.63
2018-01-07T08:20:19.903Z,83.36
2018-01-07T08:22:48.230Z,83.80
2018-01-07T08:25:16.802Z,83.92
2018-01-07T08:27:45.127Z,83.42
2018-01-07T08:30:14.784Z,83.77
2018-01-07T08:32:43.144Z,83.76
2018-01-07T08:35:12.015Z,83.62
2018-01-07T08:37:40.318Z,83.33
2018-01-07T08:40:08.653Z,83.07
2018-01-07T08:42:36.969Z,83.17
2018-01-07T08:45:05.310Z,82.96
2018-01-07T08:47:33.767Z,83.12
2018-01-07T08:50:02.098Z,82.94
2018-01-07T08:52:30.469Z,82.94
2018-01-07T08:54:58.806Z,82.98
2018-01-07T08:57:27.123Z,82.95
2018-01-07T08:59:55.467Z,82.35
2018-01-07T09:02:23.786Z,82.84
2018-01-07T09:04:52.122Z,82.81
2018-01-07T09:07:20.634Z,82.83
2018-01-07T09:09:48.966Z,82.74
2018-01-07T09:12:17.286Z,82.95
2018-01-07T09:14:45.655Z,82.84
2018-01-07T09:17:14.100Z,82.72
2018-01-07T09:19:42.438Z,83.20
2018-01-07T09:22:10.758Z,83.00
2018-01-07T09:24:39.127Z,82.83
2018-01-07T09:27:07.441Z,82.72
2018-01-07T09:29:35.780Z,82.68
2018-01-07T09:32:04.609Z,82.54
2018-01-07T09:34:32.946Z,82.89
2018-01-07T09:37:01.274Z,82.69
2018-01-07T09:39:29.911Z,82.54
2018-01-07T09:41:58.370Z,82.15
2018-01-07T09:44:26.699Z,82.82
2018-01-07T09:46:55.106Z,82.36
2018-01-07T09:49:23.580Z,82.17
2018-01-07T09:51:51.899Z,82.46
2018-01-07T09:54:20.350Z,82.14
2018-01-07T09:56:49.273Z,82.92
2018-01-07T09:59:17.590Z,82.80
2018-01-07T10:01:45.922Z,82.70
2018-01-07T10:04:14.242Z,82.46
2018-01-07T10:06:42.578Z,83.00
2018-01-07T10:09:10.899Z,82.59
2018-01-07T10:11:39.238Z,82.53
2018-01-07T10:14:08.150Z,82.53
2018-01-07T10:16:36.493Z,81.98
2018-01-07T10:19:04.806Z,82.09
2018-01-07T10:21:33.155Z,81.67
2018-01-07T10:24:01.469Z,81.90
2018-01-07T10:26:29.818Z,82.30
2018-01-07T10:28:58.133Z,82.62
2018-01-07T10:31:26.470Z,81.86
2018-01-07T10:33:54.810Z,82.20
2018-01-07T10:36:23.150Z,81.28
2018-01-07T10:38:51.473Z,82.01
2018-01-07T10:41:19.832Z,81.34
2018-01-07T10:43:48.146Z,81.85
2018-01-07T10:46:16.482Z,81.62
2018-01-07T10:48:44.798Z,80.91
2018-01-07T10:51:13.138Z,81.29
2018-01-07T10:53:41.455Z,80.41
2018-01-07T10:56:09.805Z,81.09
2018-01-07T10:58:38.117Z,80.40
2018-01-07T11:01:12.116Z,80.51
2018-01-07T11:03:40.432Z,80.31
2018-01-07T11:06:08.769Z,80.01
2018-01-07T11:08:37.084Z,79.32
2018-01-07T11:11:05.425Z,79.25
2018-01-07T11:13:33.738Z,79.78
2018-01-07T11:16:02.086Z,79.79
2018-01-07T11:18:30.403Z,79.84
2018-01-07T11:20:58.758Z,79.60
2018-01-07T11:23:27.074Z,79.52
2018-01-07T11:25:55.410Z,79.57
2018-01-07T11:28:24.458Z,79.83
2018-01-07T11:30:52.798Z,79.47
2018-01-07T11:33:21.115Z,79.18
2018-01-07T11:35:51.146Z,79.66
2018-01-07T11:38:21.922Z,79.29
2018-01-07T11:40:51.435Z,79.85
2018-01-07T11:43:21.430Z,79.98
2018-01-07T11:45:50.726Z,79.63
2018-01-07T11:48:19.042Z,79.34
2018-01-07T11:50:47.411Z,78.94
2018-01-07T11:53:17.370Z,78.97
2018-01-07T11:55:45.767Z,77.71
2018-01-07T11:58:15.674Z,76.91
2018-01-07T12:00:49.525Z,76.98
2018-01-07T12:03:17.842Z,76.76
2018-01-07T12:05:46.182Z,76.67
2018-01-07T12:08:14.667Z,76.67
2018-01-07T12:10:43.021Z,77.61
2018-01-07T12:13:11.333Z,77.40
2018-01-07T12:15:39.650Z,76.78
2018-01-07T12:18:07.995Z,77.74
2018-01-07T12:20:36.332Z,77.35
2018-01-07T12:23:04.658Z,77.97
2018-01-07T12:25:34.098Z,77.67
2018-01-07T12:28:03.250Z,76.73
2018-01-07T12:30:31.567Z,76.29
2018-01-07T12:32:59.927Z,76.85
2018-01-07T12:35:28.253Z,76.75
2018-01-07T12:37:56.582Z,75.91
2018-01-07T12:40:24.909Z,76.14
2018-01-07T12:42:53.246Z,76.44
2018-01-07T12:45:21.562Z,76.34
2018-01-07T12:47:49.902Z,76.61
2018-01-07T12:50:18.217Z,75.55
2018-01-07T12:52:46.559Z,76.02
2018-01-07T12:55:14.894Z,76.44
2018-01-07T12:57:43.402Z,76.17
2018-01-07T13:00:13.076Z,75.76
2018-01-07T13:02:46.914Z,75.05
2018-01-07T13:05:15.958Z,75.70
2018-01-07T13:07:46.812Z,75.94
2018-01-07T13:10:15.130Z,75.38
2018-01-07T13:12:43.550Z,75.96
2018-01-07T13:15:11.878Z,76.48
2018-01-07T13:17:40.221Z,75.77
2018-01-07T13:20:08.534Z,75.31
2018-01-07T13:22:36.869Z,75.86
2018-01-07T13:25:05.185Z,76.96
2018-01-07T13:27:33.546Z,76.81
2018-01-07T13:30:01.870Z,76.86
2018-01-07T13:32:30.213Z,77.28
2018-01-07T13:34:58.543Z,77.87
2018-01-07T13:37:26.878Z,77.89
2018-01-07T13:39:55.236Z,77.33
2018-01-07T13:42:23.575Z,77.09
2018-01-07T13:44:51.895Z,77.40
2018-01-07T13:47:20.239Z,76.87
2018-01-07T13:49:48.934Z,76.84
2018-01-07T13:52:17.270Z,77.29
2018-01-07T13:54:45.600Z,76.63
2018-01-07T13:57:13.934Z,77.09
2018-01-07T13:59:42.246Z,77.26
2018-01-07T14:02:10.590Z,77.49
2018-01-07T14:04:38.914Z,77.42
2018-01-07T14:07:07.255Z,77.52
2018-01-07T14:09:36.522Z,77.77
2018-01-07T14:12:04.854Z,78.03
2018-01-07T14:14:33.174Z,77.88
2018-01-07T14:17:01.514Z,77.66
2018-01-07T14:19:29.830Z,77.57
2018-01-07T14:21:58.202Z,76.62
2018-01-07T14:24:26.527Z,76.67
2018-01-07T14:26:54.856Z,76.25
2018-01-07T14:29:23.198Z,76.45
2018-01-07T14:31:51.524Z,76.10
2018-01-07T14:34:19.866Z,76.72
2018-01-07T14:36:48.191Z,76.10
2018-01-07T14:39:16.566Z,76.38
2018-01-07T14:41:44.899Z,75.94
2018-01-07T14:44:13.243Z,75.95
2018-01-07T14:46:41.561Z,76.19
2018-01-07T14:49:09.898Z,76.13
2018-01-07T14:51:38.218Z,76.26
2018-01-07T14:54:06.567Z,76.56
2018-01-07T14:56:34.887Z,76.57
2018-01-07T14:59:03.232Z,76.68
2018-01-07T15:01:31.545Z,76.78
2018-01-07T15:03:59.881Z,77.11
2018-01-07T15:06:28.198Z,77.36
2018-01-07T15:08:56.549Z,76.79
2018-01-07T15:11:24.866Z,76.96
2018-01-07T15:13:53.206Z,76.96
2018-01-07T15:16:21.521Z,77.11
2018-01-07T15:18:49.866Z,76.63
2018-01-07T15:21:18.189Z,76.66
2018-01-07T15:23:46.523Z,76.65
2018-01-07T15:26:14.834Z,77.32
2018-01-07T15:28:43.174Z,77.50
2018-01-07T15:31:11.501Z,77.75
2018-01-07T15:33:39.842Z,77.67
2018-01-07T15:36:08.158Z,77.83
2018-01-07T15:38:36.502Z,77.79
2018-01-07T15:41:04.844Z,77.88
2018-01-07T15:43:33.190Z,77.94
2018-01-07T15:46:01.510Z,78.26
2018-01-07T15:48:29.849Z,78.63
2018-01-07T15:50:58.169Z,79.13
2018-01-07T15:53:27.414Z,79.43
2018-01-07T15:55:56.699Z,80.13
2018-01-07T15:58:25.037Z,80.28
2018-01-07T16:00:53.364Z,80.12
2018-01-07T16:03:21.710Z,80.16
2018-01-07T16:05:50.057Z,80.37
2018-01-07T16:08:18.517Z,80.30
2018-01-07T16:13:32.465Z,79.75
2018-01-07T16:16:01.676Z,79.49
2018-01-07T16:18:34.725Z,79.46
2018-01-07T16:21:03.051Z,79.29
2018-01-07T16:23:31.411Z,79.61
2018-01-07T16:26:03.182Z,79.44
2018-01-07T16:28:33.548Z,80.59
2018-01-07T16:31:01.901Z,79.11
2018-01-07T16:33:30.293Z,79.49
2018-01-07T16:35:58.638Z,79.38
2018-01-07T16:38:27.691Z,79.51
2018-01-07T16:40:56.016Z,79.66
2018-01-07T16:43:24.368Z,80.16
2018-01-07T16:45:53.664Z,80.14
2018-01-07T16:48:22.047Z,80.11
2018-01-07T16:50:50.511Z,79.80
2018-01-07T16:53:18.834Z,80.30
2018-01-07T16:55:47.198Z,80.78
2018-01-07T16:58:15.515Z,80.70
2018-01-07T17:00:43.854Z,80.82
2018-01-07T17:03:12.185Z,81.28
2018-01-07T17:05:40.544Z,81.81
2018-01-07T17:08:08.887Z,81.52
2018-01-07T17:10:37.230Z,81.52
2018-01-07T17:13:05.557Z,81.61
2018-01-07T17:15:33.890Z,81.51
2018-01-07T17:18:02.828Z,81.53
2018-01-07T17:20:31.247Z,81.56
2018-01-07T17:22:59.605Z,81.59
2018-01-07T17:25:28.754Z,81.35
2018-01-07T17:27:57.085Z,81.01
2018-01-07T17:30:25.426Z,81.39
2018-01-07T17:32:53.826Z,81.39
2018-01-07T17:35:22.488Z,81.37
2018-01-07T17:37:50.778Z,81.24
2018-01-07T17:40:19.126Z,81.32
2018-01-07T17:42:47.450Z,81.53
2018-01-07T17:45:15.807Z,81.78
2018-01-07T17:47:44.124Z,82.01
2018-01-07T17:50:12.462Z,81.91
2018-01-07T17:52:40.794Z,82.07
2018-01-07T17:55:09.135Z,82.31
2018-01-07T17:57:37.464Z,82.34
2018-01-07T18:00:05.810Z,82.29
2018-01-07T18:02:34.125Z,82.62
2018-01-07T18:05:02.476Z,82.56
2018-01-07T18:07:30.858Z,82.73
2018-01-07T18:09:59.218Z,82.78
2018-01-07T18:12:27.540Z,82.42
2018-01-07T18:14:55.879Z,82.37
2018-01-07T18:17:24.560Z,82.36
2018-01-07T18:19:52.882Z,82.62
2018-01-07T18:22:21.266Z,82.51
2018-01-07T18:24:49.643Z,82.60
2018-01-07T18:27:18.987Z,82.95
2018-01-07T18:29:47.774Z,82.84
2018-01-07T18:32:16.976Z,82.78
2018-01-07T18:34:45.322Z,82.63
2018-01-07T18:37:13.646Z,82.41
2018-01-07T18:39:42.008Z,82.32
2018-01-07T18:42:10.308Z,81.81
2018-01-07T18:44:38.659Z,81.81
2018-01-07T18:47:06.979Z,82.22
2018-01-07T18:49:35.319Z,82.37
2018-01-07T18:52:03.642Z,82.00
2018-01-07T18:54:32.007Z,82.68
2018-01-07T18:57:00.356Z,82.97
2018-01-07T18:59:28.658Z,82.79
2018-01-07T19:01:56.998Z,82.88
2018-01-07T19:04:25.314Z,83.18
2018-01-07T19:06:53.651Z,83.01
2018-01-07T19:09:21.982Z,82.96
2018-01-07T19:11:50.325Z,82.80
2018-01-07T19:14:18.653Z,83.02
2018-01-07T19:16:46.998Z,83.33
2018-01-07T19:19:15.337Z,83.77
2018-01-07T19:21:43.718Z,83.59
2018-01-07T19:24:12.067Z,83.81
2018-01-07T19:26:40.430Z,83.97
2018-01-07T19:29:08.745Z,84.22
2018-01-07T19:31:37.077Z,84.07
2018-01-07T19:34:05.412Z,84.27
2018-01-07T19:36:33.746Z,84.44
2018-01-07T19:39:02.066Z,84.54
2018-01-07T19:41:30.406Z,84.37
2018-01-07T19:43:58.722Z,84.83
2018-01-07T19:46:27.918Z,84.68
2018-01-07T19:48:56.234Z,84.54
2018-01-07T19:51:24.574Z,84.62
2018-01-07T19:53:52.893Z,84.59
2018-01-07T19:56:21.238Z,84.70
2018-01-07T19:58:49.558Z,84.84
2018-01-07T20:01:17.902Z,84.70
2018-01-07T20:03:46.231Z,84.48
2018-01-07T20:06:14.569Z,84.56
2018-01-07T20:08:42.886Z,84.41
2018-01-07T20:11:11.674Z,84.74
2018-01-07T20:13:39.994Z,84.22
2018-01-07T20:16:09.366Z,84.21
2018-01-07T20:18:37.787Z,84.46
2018-01-07T20:21:06.151Z,84.27
2018-01-07T20:23:34.546Z,83.99
2018-01-07T20:26:03.972Z,83.84
2018-01-07T20:28:32.306Z,83.88
2018-01-07T20:31:00.688Z,83.97
2018-01-07T20:33:28.999Z,83.73
2018-01-07T20:35:57.335Z,83.68
2018-01-07T20:38:25.650Z,83.67
2018-01-07T20:40:53.982Z,83.26
2018-01-07T20:43:22.377Z,83.21
2018-01-07T20:45:50.718Z,83.64
2018-01-07T20:48:19.059Z,83.69
2018-01-07T20:50:47.473Z,83.60
2018-01-07T20:53:15.790Z,83.41
2018-01-07T20:55:45.018Z,83.62
2018-01-07T20:58:13.334Z,83.18
2018-01-07T21:00:41.692Z,83.33
2018-01-07T21:03:10.019Z,83.42
2018-01-07T21:05:38.330Z,83.58
2018-01-07T21:08:06.671Z,83.28
2018-01-07T21:10:35.146Z,83.14
2018-01-07T21:13:03.786Z,83.34
2018-01-07T21:15:32.474Z,83.52
2018-01-07T21:18:01.248Z,83.74
2018-01-07T21:20:29.637Z,84.17
2018-01-07T21:22:57.981Z,84.04
2018-01-07T21:25:27.297Z,83.99
2018-01-07T21:27:55.643Z,84.11
2018-01-07T21:30:23.964Z,84.24
2018-01-07T21:32:52.298Z,84.23
2018-01-07T21:35:20.619Z,84.42
2018-01-07T21:37:48.971Z,84.49
2018-01-07T21:40:17.282Z,84.41
2018-01-07T21:42:45.675Z,84.34
2018-01-07T21:45:14.136Z,84.44
2018-01-07T21:47:42.457Z,84.46
2018-01-07T21:50:10.778Z,84.57
2018-01-07T21:52:39.126Z,84.76
2018-01-07T21:55:07.436Z,84.72
2018-01-07T21:57:35.783Z,84.74
2018-01-07T22:00:15.970Z,84.34
2018-01-07T22:02:44.306Z,84.25
2018-01-07T22:05:15.557Z,84.35
2018-01-07T22:07:43.906Z,84.28
2018-01-07T22:10:12.221Z,84.40
2018-01-07T22:12:40.582Z,84.56
2018-01-07T22:15:08.882Z,84.39
2018-01-07T22:17:38.099Z,84.15
2018-01-07T22:20:12.239Z,84.33
2018-01-07T22:22:41.356Z,84.84
2018-01-07T22:25:10.084Z,84.85
2018-01-07T22:27:39.882Z,84.59
2018-01-07T22:30:08.202Z,84.61
2018-01-07T22:32:36.538Z,84.64
2018-01-07T22:35:04.850Z,84.64
2018-01-07T22:37:33.188Z,84.75
2018-01-07T22:40:01.499Z,84.62
2018-01-07T22:42:29.838Z,84.51
2018-01-07T22:44:58.153Z,84.91
2018-01-07T22:47:32.000Z,84.88
2018-01-07T22:50:00.333Z,84.98
2018-01-07T22:52:28.655Z,85.01
2018-01-07T22:54:56.974Z,85.20
2018-01-07T22:57:25.301Z,85.34
2018-01-07T22:59:53.613Z,85.49
2018-01-07T23:02:21.952Z,85.48
2018-01-07T23:04:50.262Z,85.29
2018-01-07T23:07:18.595Z,85.57
2018-01-07T23:09:46.910Z,85.84
2018-01-07T23:12:15.247Z,85.56
2018-01-07T23:14:43.561Z,85.28
2018-01-07T23:17:11.902Z,85.40
2018-01-07T23:19:40.213Z,85.63
2018-01-07T23:22:08.545Z,85.54
2018-01-07T23:24:36.857Z,85.55
2018-01-07T23:27:05.216Z,85.27
2018-01-07T23:29:33.530Z,85.37
2018-01-07T23:32:01.845Z,85.43
2018-01-07T23:34:30.183Z,85.47
2018-01-07T23:36:58.494Z,85.69
2018-01-07T23:39:26.825Z,85.67
2018-01-07T23:41:55.133Z,85.48
2018-01-07T23:44:23.474Z,85.65
2018-01-07T23:46:51.793Z,85.91
2018-01-07T23:49:20.137Z,85.99
2018-01-07T23:51:48.458Z,85.86
2018-01-07T23:54:16.789Z,85.85
2018-01-07T23:56:45.109Z,86.03
2018-01-07T23:59:13.441Z,85.74
